sensor_id;sensor_type;location;lat;lon;timestamp;temperature;humidity
24682;DHT22;12802;53.390;-2.328;2023-07-02T02:28:42;14.20;99.90
24682;DHT22;12802;53.390;-2.328;2023-07-02T02:31:09;14.20;99.90
24682;DHT22;12802;53.390;-2.328;2023-07-02T02:33:35;14.20;99.90
24682;DHT22;12802;53.390;-2.328;2023-07-02T02:36:03;14.20;99.90
24682;DHT22;12802;53.390;-2.328;2023-07-02T02:38:30;14.20;99.90
24682;DHT22;12802;53.390;-2.328;2023-07-02T02:40:55;14.30;99.90
24682;DHT22;12802;53.390;-2.328;2023-07-02T03:41:54;14.20;99.90
24682;DHT22;12802;53.390;-2.328;2023-07-02T03:44:20;14.20;99.90
24682;DHT22;12802;53.390;-2.328;2023-07-02T03:46:45;14.10;99.90
24682;DHT22;12802;53.390;-2.328;2023-07-02T03:49:11;14.20;99.90
24682;DHT22;12802;53.390;-2.328;2023-07-02T03:51:37;14.10;99.90
24682;DHT22;12802;53.390;-2.328;2023-07-02T03:54:04;14.10;99.90
24682;DHT22;12802;53.390;-2.328;2023-07-02T03:56:29;14.20;99.90
24682;DHT22;12802;53.390;-2.328;2023-07-02T03:58:55;14.20;99.90
24682;DHT22;12802;53.390;-2.328;2023-07-02T04:01:21;14.20;99.90
24682;DHT22;12802;53.390;-2.328;2023-07-02T16:51:35;18.60;99.90
24682;DHT22;12802;53.390;-2.328;2023-07-02T16:54:06;18.40;99.90
24682;DHT22;12802;53.390;-2.328;2023-07-02T16:56:33;18.30;99.90
24682;DHT22;12802;53.390;-2.328;2023-07-02T16:58:59;18.10;99.90
24682;DHT22;12802;53.390;-2.328;2023-07-02T17:01:25;17.90;99.90
24682;DHT22;12802;53.390;-2.328;2023-07-02T17:03:51;17.80;99.90
24682;DHT22;12802;53.390;-2.328;2023-07-02T17:06:17;17.80;99.90
24682;DHT22;12802;53.390;-2.328;2023-07-02T17:08:44;17.70;99.90
24682;DHT22;12802;53.390;-2.328;2023-07-02T17:11:11;17.70;99.90
24682;DHT22;12802;53.390;-2.328;2023-07-02T17:13:37;17.70;99.90
24682;DHT22;12802;53.390;-2.328;2023-07-02T17:16:04;17.70;99.90
24682;DHT22;12802;53.390;-2.328;2023-07-02T17:18:32;17.60;99.90
24682;DHT22;12802;53.390;-2.328;2023-07-02T17:20:58;17.60;99.90
24682;DHT22;12802;53.390;-2.328;2023-07-02T17:23:23;17.60;99.90
24682;DHT22;12802;53.390;-2.328;2023-07-02T17:25:50;17.50;99.90
24682;DHT22;12802;53.390;-2.328;2023-07-02T17:28:16;17.50;99.90
24682;DHT22;12802;53.390;-2.328;2023-07-02T17:30:43;17.50;99.90
24682;DHT22;12802;53.390;-2.328;2023-07-02T17:33:09;17.40;99.90
24682;DHT22;12802;53.390;-2.328;2023-07-02T17:35:41;17.50;99.90
24682;DHT22;12802;53.390;-2.328;2023-07-02T17:38:08;17.30;99.90
24682;DHT22;12802;53.390;-2.328;2023-07-02T17:40:39;17.20;99.90
24682;DHT22;12802;53.390;-2.328;2023-07-02T17:43:05;17.10;99.90
24682;DHT22;12802;53.390;-2.328;2023-07-02T17:45:30;17.10;99.90
24682;DHT22;12802;53.390;-2.328;2023-07-02T17:47:56;17.10;99.90
24682;DHT22;12802;53.390;-2.328;2023-07-02T17:50:22;17.10;99.90
24682;DHT22;12802;53.390;-2.328;2023-07-02T17:52:48;17.00;99.90
24682;DHT22;12802;53.390;-2.328;2023-07-02T17:55:14;17.00;99.90
24682;DHT22;12802;53.390;-2.328;2023-07-02T17:57:40;17.00;99.90
24682;DHT22;12802;53.390;-2.328;2023-07-02T18:00:06;17.10;99.90
24682;DHT22;12802;53.390;-2.328;2023-07-02T18:02:33;16.90;99.90
24682;DHT22;12802;53.390;-2.328;2023-07-02T18:04:59;16.90;99.90
24682;DHT22;12802;53.390;-2.328;2023-07-02T18:07:25;16.80;99.90
24682;DHT22;12802;53.390;-2.328;2023-07-02T18:09:53;16.70;99.90
24682;DHT22;12802;53.390;-2.328;2023-07-02T18:12:23;16.70;99.90
24682;DHT22;12802;53.390;-2.328;2023-07-02T18:14:50;16.60;99.90
24682;DHT22;12802;53.390;-2.328;2023-07-02T18:17:17;16.60;99.90
24682;DHT22;12802;53.390;-2.328;2023-07-02T18:19:43;16.50;99.90
24682;DHT22;12802;53.390;-2.328;2023-07-02T18:22:10;16.40;99.90
24682;DHT22;12802;53.390;-2.328;2023-07-02T18:24:37;16.40;99.90
24682;DHT22;12802;53.390;-2.328;2023-07-02T18:27:04;16.40;99.90
24682;DHT22;12802;53.390;-2.328;2023-07-02T18:29:32;16.30;99.90
24682;DHT22;12802;53.390;-2.328;2023-07-02T18:32:02;16.40;99.90
24682;DHT22;12802;53.390;-2.328;2023-07-02T18:34:35;16.40;99.90
24682;DHT22;12802;53.390;-2.328;2023-07-02T18:37:02;16.30;99.90
24682;DHT22;12802;53.390;-2.328;2023-07-02T18:39:30;16.20;99.90
24682;DHT22;12802;53.390;-2.328;2023-07-02T18:42:03;16.20;99.90
24682;DHT22;12802;53.390;-2.328;2023-07-02T18:44:29;16.20;99.90
24682;DHT22;12802;53.390;-2.328;2023-07-02T18:47:04;16.10;99.90
24682;DHT22;12802;53.390;-2.328;2023-07-02T18:49:32;16.10;99.90
24682;DHT22;12802;53.390;-2.328;2023-07-02T18:52:15;16.10;99.90
24682;DHT22;12802;53.390;-2.328;2023-07-02T18:54:42;16.20;99.90
24682;DHT22;12802;53.390;-2.328;2023-07-02T18:57:09;16.10;99.90
24682;DHT22;12802;53.390;-2.328;2023-07-02T18:59:36;16.10;99.90
24682;DHT22;12802;53.390;-2.328;2023-07-02T19:02:03;16.10;99.90
24682;DHT22;12802;53.390;-2.328;2023-07-02T19:04:29;16.10;99.90
24682;DHT22;12802;53.390;-2.328;2023-07-02T19:06:55;16.10;99.90
24682;DHT22;12802;53.390;-2.328;2023-07-02T19:09:23;15.90;99.90
24682;DHT22;12802;53.390;-2.328;2023-07-02T19:11:49;15.70;99.90
24682;DHT22;12802;53.390;-2.328;2023-07-02T19:14:15;15.40;99.90
24682;DHT22;12802;53.390;-2.328;2023-07-02T19:16:40;15.10;99.90
24682;DHT22;12802;53.390;-2.328;2023-07-02T19:19:06;14.80;99.90
24682;DHT22;12802;53.390;-2.328;2023-07-02T19:21:32;14.50;99.90
24682;DHT22;12802;53.390;-2.328;2023-07-02T19:24:00;14.40;99.90
24682;DHT22;12802;53.390;-2.328;2023-07-02T19:26:26;14.30;99.90
24682;DHT22;12802;53.390;-2.328;2023-07-02T19:28:54;14.10;99.90
24682;DHT22;12802;53.390;-2.328;2023-07-02T19:31:20;14.00;99.90
24682;DHT22;12802;53.390;-2.328;2023-07-02T19:33:46;14.00;99.90
24682;DHT22;12802;53.390;-2.328;2023-07-02T19:36:13;14.00;99.90
24682;DHT22;12802;53.390;-2.328;2023-07-02T19:38:38;14.00;99.90
24682;DHT22;12802;53.390;-2.328;2023-07-02T19:41:04;14.10;99.90
24682;DHT22;12802;53.390;-2.328;2023-07-02T19:43:30;14.10;99.90
24682;DHT22;12802;53.390;-2.328;2023-07-02T19:45:59;14.10;99.90
24682;DHT22;12802;53.390;-2.328;2023-07-02T19:48:27;14.10;99.90
24682;DHT22;12802;53.390;-2.328;2023-07-02T19:51:04;14.10;99.90
24682;DHT22;12802;53.390;-2.328;2023-07-02T19:53:31;14.10;99.90
24682;DHT22;12802;53.390;-2.328;2023-07-02T19:55:57;14.20;99.90
24682;DHT22;12802;53.390;-2.328;2023-07-02T19:58:23;14.20;99.90
24682;DHT22;12802;53.390;-2.328;2023-07-02T20:00:49;14.20;99.90
24682;DHT22;12802;53.390;-2.328;2023-07-02T20:03:15;14.10;99.90
24682;DHT22;12802;53.390;-2.328;2023-07-02T20:05:41;14.10;99.90
24682;DHT22;12802;53.390;-2.328;2023-07-02T20:08:07;14.10;99.90
24682;DHT22;12802;53.390;-2.328;2023-07-02T20:10:34;14.10;99.90
24682;DHT22;12802;53.390;-2.328;2023-07-02T20:12:59;14.10;99.90
24682;DHT22;12802;53.390;-2.328;2023-07-02T20:15:25;14.10;99.90
24682;DHT22;12802;53.390;-2.328;2023-07-02T20:17:52;14.10;99.90
24682;DHT22;12802;53.390;-2.328;2023-07-02T20:20:17;14.10;99.90
24682;DHT22;12802;53.390;-2.328;2023-07-02T20:22:45;14.10;99.90
24682;DHT22;12802;53.390;-2.328;2023-07-02T20:25:13;14.10;99.90
24682;DHT22;12802;53.390;-2.328;2023-07-02T20:27:39;14.10;99.90
24682;DHT22;12802;53.390;-2.328;2023-07-02T20:30:05;14.10;99.90
24682;DHT22;12802;53.390;-2.328;2023-07-02T20:32:31;14.10;99.90
24682;DHT22;12802;53.390;-2.328;2023-07-02T20:34:57;14.00;99.90
24682;DHT22;12802;53.390;-2.328;2023-07-02T20:37:23;14.00;99.90
24682;DHT22;12802;53.390;-2.328;2023-07-02T20:39:54;14.00;99.90
24682;DHT22;12802;53.390;-2.328;2023-07-02T20:42:20;13.90;99.90
24682;DHT22;12802;53.390;-2.328;2023-07-02T20:44:50;13.90;99.90
24682;DHT22;12802;53.390;-2.328;2023-07-02T20:47:18;13.90;99.90
24682;DHT22;12802;53.390;-2.328;2023-07-02T20:49:44;13.90;99.90
24682;DHT22;12802;53.390;-2.328;2023-07-02T20:52:15;13.80;99.90
24682;DHT22;12802;53.390;-2.328;2023-07-02T20:54:42;13.80;99.90
24682;DHT22;12802;53.390;-2.328;2023-07-02T20:57:10;13.80;99.90
24682;DHT22;12802;53.390;-2.328;2023-07-02T20:59:35;13.70;99.90
24682;DHT22;12802;53.390;-2.328;2023-07-02T21:02:01;13.70;99.90
24682;DHT22;12802;53.390;-2.328;2023-07-02T21:04:27;13.70;99.90
24682;DHT22;12802;53.390;-2.328;2023-07-02T21:06:53;13.70;99.90
24682;DHT22;12802;53.390;-2.328;2023-07-02T21:09:18;13.60;99.90
24682;DHT22;12802;53.390;-2.328;2023-07-02T21:11:44;13.70;99.90
24682;DHT22;12802;53.390;-2.328;2023-07-02T21:14:12;13.60;99.90
24682;DHT22;12802;53.390;-2.328;2023-07-02T21:16:38;13.60;99.90
24682;DHT22;12802;53.390;-2.328;2023-07-02T21:19:04;13.60;99.90
24682;DHT22;12802;53.390;-2.328;2023-07-02T21:21:30;13.60;99.90
24682;DHT22;12802;53.390;-2.328;2023-07-02T21:23:55;13.60;99.90
24682;DHT22;12802;53.390;-2.328;2023-07-02T21:26:21;13.60;99.90
24682;DHT22;12802;53.390;-2.328;2023-07-02T21:28:47;13.60;99.90
24682;DHT22;12802;53.390;-2.328;2023-07-02T21:31:13;13.60;99.90
24682;DHT22;12802;53.390;-2.328;2023-07-02T21:33:39;13.60;99.90
24682;DHT22;12802;53.390;-2.328;2023-07-02T21:36:06;13.60;99.90
24682;DHT22;12802;53.390;-2.328;2023-07-02T21:38:38;13.60;99.90
24682;DHT22;12802;53.390;-2.328;2023-07-02T21:41:05;13.60;99.90
24682;DHT22;12802;53.390;-2.328;2023-07-02T21:43:31;13.60;99.90
24682;DHT22;12802;53.390;-2.328;2023-07-02T21:45:57;13.70;99.90
24682;DHT22;12802;53.390;-2.328;2023-07-02T21:48:23;13.50;99.90
24682;DHT22;12802;53.390;-2.328;2023-07-02T21:50:49;13.60;99.90
24682;DHT22;12802;53.390;-2.328;2023-07-02T21:53:15;13.60;99.90
24682;DHT22;12802;53.390;-2.328;2023-07-02T21:55:41;13.60;99.90
24682;DHT22;12802;53.390;-2.328;2023-07-02T21:58:07;13.60;99.90
24682;DHT22;12802;53.390;-2.328;2023-07-02T22:00:32;13.60;99.90
24682;DHT22;12802;53.390;-2.328;2023-07-02T22:02:58;13.60;99.90
24682;DHT22;12802;53.390;-2.328;2023-07-02T22:05:24;13.50;99.90
24682;DHT22;12802;53.390;-2.328;2023-07-02T22:07:51;13.50;99.90
24682;DHT22;12802;53.390;-2.328;2023-07-02T22:10:17;13.50;99.90
24682;DHT22;12802;53.390;-2.328;2023-07-02T22:12:43;13.50;99.90
24682;DHT22;12802;53.390;-2.328;2023-07-02T22:15:09;13.50;99.90
24682;DHT22;12802;53.390;-2.328;2023-07-02T22:17:36;13.50;99.90
24682;DHT22;12802;53.390;-2.328;2023-07-02T22:20:03;13.50;99.90
24682;DHT22;12802;53.390;-2.328;2023-07-02T22:22:40;13.40;99.90
24682;DHT22;12802;53.390;-2.328;2023-07-02T22:25:06;13.40;99.90
24682;DHT22;12802;53.390;-2.328;2023-07-02T22:27:33;13.40;99.90
24682;DHT22;12802;53.390;-2.328;2023-07-02T22:30:00;13.40;99.90
24682;DHT22;12802;53.390;-2.328;2023-07-02T22:32:27;13.40;99.90
24682;DHT22;12802;53.390;-2.328;2023-07-02T22:34:53;13.40;99.90
24682;DHT22;12802;53.390;-2.328;2023-07-02T22:37:19;13.40;99.90
24682;DHT22;12802;53.390;-2.328;2023-07-02T22:39:44;13.30;99.90
24682;DHT22;12802;53.390;-2.328;2023-07-02T22:42:10;13.30;99.90
24682;DHT22;12802;53.390;-2.328;2023-07-02T22:44:36;13.20;99.90
24682;DHT22;12802;53.390;-2.328;2023-07-02T22:47:02;13.20;99.90
24682;DHT22;12802;53.390;-2.328;2023-07-02T22:49:28;13.20;99.90
24682;DHT22;12802;53.390;-2.328;2023-07-02T22:51:57;13.20;99.90
24682;DHT22;12802;53.390;-2.328;2023-07-02T22:54:26;13.10;99.90
24682;DHT22;12802;53.390;-2.328;2023-07-02T22:56:55;13.10;99.90
24682;DHT22;12802;53.390;-2.328;2023-07-02T22:59:23;13.00;99.90
24682;DHT22;12802;53.390;-2.328;2023-07-02T23:01:49;13.00;99.90
24682;DHT22;12802;53.390;-2.328;2023-07-02T23:04:16;12.90;99.90
24682;DHT22;12802;53.390;-2.328;2023-07-02T23:06:42;12.90;99.90
24682;DHT22;12802;53.390;-2.328;2023-07-02T23:09:07;12.90;99.90
24682;DHT22;12802;53.390;-2.328;2023-07-02T23:11:34;12.90;99.90
24682;DHT22;12802;53.390;-2.328;2023-07-02T23:14:00;12.90;99.90
24682;DHT22;12802;53.390;-2.328;2023-07-02T23:16:26;12.90;99.90
24682;DHT22;12802;53.390;-2.328;2023-07-02T23:18:51;12.90;99.90
24682;DHT22;12802;53.390;-2.328;2023-07-02T23:21:17;12.90;99.90
24682;DHT22;12802;53.390;-2.328;2023-07-02T23:23:44;13.00;99.90
24682;DHT22;12802;53.390;-2.328;2023-07-02T23:26:10;13.00;99.90
24682;DHT22;12802;53.390;-2.328;2023-07-02T23:28:44;13.00;99.90
24682;DHT22;12802;53.390;-2.328;2023-07-02T23:31:10;13.00;99.90
24682;DHT22;12802;53.390;-2.328;2023-07-02T23:33:36;13.10;99.90
24682;DHT22;12802;53.390;-2.328;2023-07-02T23:36:02;13.00;99.90
24682;DHT22;12802;53.390;-2.328;2023-07-02T23:38:28;13.00;99.90
24682;DHT22;12802;53.390;-2.328;2023-07-02T23:40:54;13.00;99.90
24682;DHT22;12802;53.390;-2.328;2023-07-02T23:43:20;12.90;99.90
24682;DHT22;12802;53.390;-2.328;2023-07-02T23:45:46;12.80;99.90
24682;DHT22;12802;53.390;-2.328;2023-07-02T23:48:12;12.70;99.90
24682;DHT22;12802;53.390;-2.328;2023-07-02T23:50:38;12.70;99.90
24682;DHT22;12802;53.390;-2.328;2023-07-02T23:53:04;12.60;99.90
24682;DHT22;12802;53.390;-2.328;2023-07-02T23:55:29;12.50;99.90
24682;DHT22;12802;53.390;-2.328;2023-07-02T23:57:55;12.40;99.90
